Time;durP1;ratioP1;P1;durP2;ratioP2;P2;SDS_P1;SDS_P2;PMS_P1;PMS_P2;Temp;Humidity;BMP_temperature;BMP_pressure;BME280_temperature;BME280_humidity;BME280_pressure;Samples;Min_cycle;Max_cycle;Signal;HPM_P1;HPM_P2
2023/03/06 00:01:00;;;;;;;2.60;0.43;;;18.30;1.00;;;;;;5071998;28;20131;-38
2023/03/06 00:03:27;;;;;;;0.82;0.38;;;18.30;1.00;;;;;;5071466;28;20124;-39
2023/03/06 00:05:56;;;;;;;1.35;0.30;;;18.20;1.00;;;;;;5072101;28;20484;-38
2023/03/06 00:08:23;;;;;;;2.35;0.22;;;18.20;1.00;;;;;;5072157;28;20468;-38
2023/03/06 00:10:51;;;;;;;0.82;0.13;;;18.20;1.00;;;;;;5072067;28;20071;-38
2023/03/06 00:13:21;;;;;;;0.93;0.28;;;18.20;1.00;;;;;;5053177;28;20091;-39
2023/03/06 00:15:47;;;;;;;0.95;0.25;;;18.10;1.00;;;;;;5071923;28;20060;-38
2023/03/06 00:18:14;;;;;;;0.90;0.30;;;18.10;1.00;;;;;;5071943;28;20492;-38
2023/03/06 00:20:43;;;;;;;2.65;0.45;;;18.00;1.00;;;;;;5071969;28;20044;-38
2023/03/06 00:23:12;;;;;;;1.65;0.30;;;18.00;1.00;;;;;;5071085;28;20048;-38
2023/03/06 00:25:44;;;;;;;0.45;0.20;;;17.90;1.00;;;;;;5081348;22;20115;-37
2023/03/06 00:28:13;;;;;;;1.88;0.40;;;17.90;1.00;;;;;;5071764;28;20040;-36
2023/03/06 00:30:41;;;;;;;2.45;0.40;;;17.90;1.00;;;;;;5053877;28;20127;-37
2023/03/06 00:33:07;;;;;;;3.13;0.40;;;17.80;1.00;;;;;;5071113;28;20068;-37
2023/03/06 00:35:37;;;;;;;0.77;0.30;;;17.80;1.00;;;;;;5053634;28;20915;-37
2023/03/06 00:38:04;;;;;;;1.65;0.40;;;17.80;1.00;;;;;;5053752;28;20044;-38
2023/03/06 00:40:31;;;;;;;1.00;0.20;;;17.80;1.00;;;;;;5053829;28;20144;-36
2023/03/06 00:42:58;;;;;;;2.85;0.77;;;17.70;1.00;;;;;;5071059;28;20037;-36
2023/03/06 00:45:25;;;;;;;1.30;0.50;;;17.70;1.00;;;;;;5053604;28;20048;-37
2023/03/06 00:47:52;;;;;;;2.25;0.35;;;17.70;1.00;;;;;;5053714;28;20106;-37
2023/03/06 00:50:19;;;;;;;1.33;0.20;;;17.60;1.00;;;;;;5071552;28;20059;-36
2023/03/06 00:52:46;;;;;;;0.68;0.15;;;17.60;1.00;;;;;;5052951;28;20036;-37
2023/03/06 00:55:12;;;;;;;1.08;0.35;;;17.60;1.00;;;;;;5071637;28;20051;-36
2023/03/06 00:57:39;;;;;;;1.15;0.20;;;17.50;1.00;;;;;;5071629;28;20184;-37
2023/03/06 01:00:09;;;;;;;2.03;0.68;;;17.50;1.00;;;;;;5053534;28;20056;-37
2023/03/06 01:02:36;;;;;;;1.48;0.28;;;17.50;1.00;;;;;;5071061;28;20119;-37
2023/03/06 01:05:03;;;;;;;1.63;0.30;;;17.50;1.00;;;;;;5071424;28;20037;-37
2023/03/06 01:07:32;;;;;;;2.45;0.40;;;17.40;1.00;;;;;;5053364;28;20041;-37
2023/03/06 01:09:59;;;;;;;0.43;0.20;;;17.40;1.00;;;;;;5053443;28;20050;-36
2023/03/06 01:12:26;;;;;;;0.52;0.30;;;17.30;1.00;;;;;;5071093;28;20072;-36
2023/03/06 01:14:53;;;;;;;0.88;0.38;;;17.30;1.00;;;;;;5053016;28;20048;-36
2023/03/06 01:17:19;;;;;;;0.50;0.20;;;17.20;1.00;;;;;;5053293;28;20087;-37
2023/03/06 01:19:46;;;;;;;1.10;0.32;;;17.20;1.00;;;;;;5053591;28;20565;-37
2023/03/06 01:22:13;;;;;;;2.05;0.20;;;17.10;1.00;;;;;;5053102;28;20048;-37
2023/03/06 01:24:40;;;;;;;1.10;0.38;;;17.10;1.00;;;;;;5052982;28;20131;-37
2023/03/06 01:27:06;;;;;;;1.80;0.30;;;17.10;1.00;;;;;;5053159;28;20047;-37
2023/03/06 01:29:33;;;;;;;0.45;0.20;;;17.10;1.00;;;;;;5071411;28;20113;-37
2023/03/06 01:32:00;;;;;;;0.68;0.20;;;17.10;1.00;;;;;;5053352;28;20105;-37
2023/03/06 01:34:27;;;;;;;0.93;0.32;;;17.00;1.00;;;;;;5070427;28;20040;-37
2023/03/06 01:36:54;;;;;;;1.20;0.32;;;17.00;1.00;;;;;;5072462;28;20458;-37
2023/03/06 01:39:21;;;;;;;2.33;0.20;;;16.90;1.00;;;;;;5040490;28;20048;-37
2023/03/06 01:41:47;;;;;;;0.80;0.30;;;17.00;1.00;;;;;;5074910;28;20075;-37
2023/03/06 01:44:14;;;;;;;0.77;0.20;;;16.90;1.00;;;;;;5055991;28;20523;-37
2023/03/06 01:46:43;;;;;;;0.90;0.30;;;16.90;1.00;;;;;;5074620;28;20086;-37
2023/03/06 01:49:34;;;;;;;1.38;0.43;;;16.90;1.00;;;;;;5056722;28;20491;-36
2023/03/06 01:52:01;;;;;;;2.05;0.40;;;16.80;1.00;;;;;;5056700;28;20048;-36
2023/03/06 01:55:14;;;;;;;1.20;0.40;;;16.80;1.00;;;;;;5055999;28;20055;-37
2023/03/06 01:57:51;;;;;;;0.95;0.40;;;16.80;1.00;;;;;;5074636;28;20052;-37
2023/03/06 02:00:22;;;;;;;2.10;0.60;;;16.80;1.00;;;;;;5056260;28;20518;-37
2023/03/06 02:02:59;;;;;;;0.88;0.20;;;16.70;1.00;;;;;;5055769;28;20565;-37
2023/03/06 02:05:26;;;;;;;1.30;0.43;;;16.70;1.00;;;;;;5074395;28;20438;-37
2023/03/06 02:07:53;;;;;;;2.45;0.20;;;16.70;1.00;;;;;;5061910;28;20048;-37
2023/03/06 02:10:21;;;;;;;1.10;0.20;;;16.70;1.00;;;;;;5067256;28;20047;-37
2023/03/06 02:12:49;;;;;;;2.00;0.63;;;16.60;1.00;;;;;;5072165;28;20345;-37
2023/03/06 02:15:19;;;;;;;1.90;0.40;;;16.60;1.00;;;;;;5072612;28;20044;-37
2023/03/06 02:17:48;;;;;;;0.40;0.10;;;16.60;1.00;;;;;;5072795;28;20048;-37
2023/03/06 02:20:23;;;;;;;0.80;0.20;;;16.60;1.00;;;;;;5072544;28;20056;-37
2023/03/06 02:23:03;;;;;;;2.10;0.20;;;16.50;1.00;;;;;;5072031;28;20044;-37
2023/03/06 02:25:32;;;;;;;2.10;0.52;;;16.50;1.00;;;;;;5072747;28;20040;-37
2023/03/06 02:27:59;;;;;;;1.92;0.43;;;16.50;1.00;;;;;;5074037;28;20047;-37
2023/03/06 02:30:27;;;;;;;2.47;0.30;;;16.50;1.00;;;;;;5072608;28;20040;-37
2023/03/06 02:32:54;;;;;;;0.98;0.20;;;16.40;1.00;;;;;;5073263;28;20048;-37
2023/03/06 02:35:24;;;;;;;2.40;0.65;;;16.40;1.00;;;;;;5072543;28;20495;-37
2023/03/06 02:37:52;;;;;;;2.22;0.25;;;16.40;1.00;;;;;;5073895;28;20071;-37
2023/03/06 02:40:21;;;;;;;2.20;0.20;;;16.40;1.00;;;;;;5067007;28;20055;-37
2023/03/06 02:42:55;;;;;;;0.30;0.17;;;16.40;1.00;;;;;;5072782;28;20044;-38
2023/03/06 02:45:34;;;;;;;0.30;0.10;;;16.30;1.00;;;;;;5072125;28;20037;-37
2023/03/06 02:48:01;;;;;;;2.35;0.30;;;16.30;1.00;;;;;;5071814;28;20045;-36
2023/03/06 02:50:29;;;;;;;0.85;0.20;;;16.30;1.00;;;;;;5072314;28;20075;-37
2023/03/06 02:52:56;;;;;;;0.65;0.20;;;16.30;1.00;;;;;;5071634;28;20105;-37
2023/03/06 02:55:23;;;;;;;0.40;0.20;;;16.30;1.00;;;;;;5073182;28;20033;-37
2023/03/06 02:57:52;;;;;;;0.22;0.03;;;16.20;1.00;;;;;;5055499;28;20055;-37
2023/03/06 03:00:19;;;;;;;1.10;0.70;;;16.20;1.00;;;;;;5055424;28;20094;-37
2023/03/06 03:02:46;;;;;;;1.20;0.63;;;16.20;1.00;;;;;;5072599;28;20113;-37
2023/03/06 03:05:13;;;;;;;1.58;0.20;;;16.20;1.00;;;;;;5073348;28;20484;-37
2023/03/06 03:07:45;;;;;;;1.10;0.10;;;16.20;1.00;;;;;;5055174;28;20437;-37
2023/03/06 03:10:13;;;;;;;0.98;0.20;;;16.10;1.00;;;;;;5055253;28;20072;-37
2023/03/06 03:12:41;;;;;;;1.95;0.30;;;16.10;1.00;;;;;;5054580;28;20044;-37
2023/03/06 03:15:09;;;;;;;1.35;0.25;;;16.10;1.00;;;;;;5055152;28;20050;-38
2023/03/06 03:17:38;;;;;;;1.75;0.32;;;16.10;1.00;;;;;;5055139;28;20083;-37
2023/03/06 03:20:07;;;;;;;0.90;0.22;;;16.10;1.00;;;;;;5073042;28;20052;-37
2023/03/06 03:22:34;;;;;;;0.60;0.13;;;16.00;1.00;;;;;;5054466;28;20545;-37
2023/03/06 03:25:01;;;;;;;0.73;0.30;;;16.00;1.00;;;;;;5072617;28;20036;-37
2023/03/06 03:27:29;;;;;;;1.27;0.32;;;16.00;1.00;;;;;;5054923;28;20044;-38
2023/03/06 03:29:58;;;;;;;0.60;0.20;;;16.00;1.00;;;;;;5054995;28;20075;-37
2023/03/06 03:32:25;;;;;;;0.32;0.20;;;16.00;1.00;;;;;;5054485;28;20098;-38
2023/03/06 03:34:54;;;;;;;0.60;0.10;;;15.90;1.00;;;;;;5054320;28;20051;-38
2023/03/06 03:37:23;;;;;;;1.75;0.20;;;15.90;1.00;;;;;;5054717;28;20075;-37
2023/03/06 03:39:50;;;;;;;0.95;0.20;;;15.90;1.00;;;;;;5054770;28;20105;-37
2023/03/06 03:42:17;;;;;;;1.15;0.30;;;15.90;1.00;;;;;;5054175;28;20047;-37
2023/03/06 03:44:44;;;;;;;0.38;0.10;;;15.90;1.00;;;;;;5054320;28;20403;-37
2023/03/06 03:47:11;;;;;;;1.52;0.32;;;15.80;1.00;;;;;;5072396;28;20060;-37
2023/03/06 03:49:38;;;;;;;0.88;0.47;;;15.80;1.00;;;;;;5054381;28;20602;-37
2023/03/06 03:52:06;;;;;;;0.77;0.25;;;15.80;1.00;;;;;;5054497;28;20055;-38
2023/03/06 03:54:35;;;;;;;1.67;0.30;;;15.80;1.00;;;;;;5053966;28;20044;-37
2023/03/06 03:57:02;;;;;;;1.00;0.15;;;15.80;1.00;;;;;;5054312;28;20166;-37
2023/03/06 03:59:32;;;;;;;1.17;0.22;;;15.80;1.00;;;;;;5054026;28;20496;-37
2023/03/06 04:02:10;;;;;;;0.25;0.15;;;15.70;1.00;;;;;;5071650;28;20055;-37
2023/03/06 04:04:46;;;;;;;0.73;0.10;;;15.70;1.00;;;;;;5053833;28;20470;-37
2023/03/06 04:07:14;;;;;;;0.90;0.40;;;15.70;1.00;;;;;;5054150;28;20044;-37
2023/03/06 04:09:40;;;;;;;1.35;0.40;;;15.70;1.00;;;;;;5054281;28;20084;-37
2023/03/06 04:12:07;;;;;;;0.55;0.10;;;15.70;1.00;;;;;;5072117;28;20072;-37
2023/03/06 04:14:36;;;;;;;0.85;0.43;;;15.70;1.00;;;;;;5053374;28;20052;-37
2023/03/06 04:17:03;;;;;;;0.63;0.10;;;15.60;1.00;;;;;;5054129;28;20048;-37
2023/03/06 04:19:30;;;;;;;1.27;0.13;;;15.60;1.00;;;;;;5053999;28;20052;-38
2023/03/06 04:21:58;;;;;;;1.02;0.20;;;15.60;1.00;;;;;;5053882;28;20040;-37
2023/03/06 04:24:25;;;;;;;0.80;0.22;;;15.60;1.00;;;;;;5053214;28;20519;-38
2023/03/06 04:26:52;;;;;;;0.80;0.20;;;15.60;1.00;;;;;;5071715;28;20037;-37
2023/03/06 04:29:19;;;;;;;1.30;0.40;;;15.60;1.00;;;;;;5053973;28;20071;-37
2023/03/06 04:31:46;;;;;;;1.13;0.20;;;15.60;1.00;;;;;;5053745;28;20139;-37
2023/03/06 04:34:13;;;;;;;1.25;0.30;;;15.60;1.00;;;;;;5071015;28;20071;-37
2023/03/06 04:36:43;;;;;;;1.08;0.13;;;15.50;1.00;;;;;;5053799;28;20044;-37
2023/03/06 04:39:12;;;;;;;0.47;0.10;;;15.50;1.00;;;;;;5053854;28;20047;-37
2023/03/06 04:41:40;;;;;;;0.45;0.20;;;15.50;1.00;;;;;;5071644;28;20072;-37
2023/03/06 04:44:08;;;;;;;1.63;0.20;;;15.50;1.00;;;;;;5071045;28;20399;-38
2023/03/06 04:46:35;;;;;;;0.77;0.20;;;15.50;1.00;;;;;;5071684;28;20098;-37
2023/03/06 04:49:02;;;;;;;0.75;0.10;;;15.50;1.00;;;;;;5071779;28;20119;-38
2023/03/06 04:51:30;;;;;;;0.82;0.13;;;15.40;1.00;;;;;;5071622;28;20040;-37
2023/03/06 04:53:56;;;;;;;1.25;0.13;;;15.40;1.00;;;;;;5070962;28;20123;-37
2023/03/06 04:56:23;;;;;;;2.60;0.28;;;15.40;1.00;;;;;;5071542;28;20045;-37
2023/03/06 04:58:50;;;;;;;1.85;0.15;;;15.40;1.00;;;;;;5071619;28;20083;-37
2023/03/06 05:01:17;;;;;;;1.08;0.10;;;15.40;1.00;;;;;;5071576;28;20055;-37
2023/03/06 05:03:44;;;;;;;1.92;0.22;;;15.40;1.00;;;;;;5070678;28;20090;-37
2023/03/06 05:06:11;;;;;;;0.47;0.20;;;15.30;1.00;;;;;;5071559;28;20068;-37
2023/03/06 05:08:38;;;;;;;2.13;0.20;;;15.30;1.00;;;;;;5071405;28;20045;-37
2023/03/06 05:11:04;;;;;;;0.65;0.10;;;15.30;1.00;;;;;;5068552;28;20369;-37
2023/03/06 05:13:31;;;;;;;0.80;0.20;;;15.30;1.00;;;;;;5073804;28;20041;-37
2023/03/06 05:16:05;;;;;;;1.83;0.20;;;15.30;1.00;;;;;;5075334;28;20452;-37
2023/03/06 05:18:33;;;;;;;0.93;0.10;;;15.30;1.00;;;;;;5075371;28;20044;-38
2023/03/06 05:21:00;;;;;;;3.17;0.55;;;15.30;1.00;;;;;;5073539;28;20041;-37
2023/03/06 05:23:29;;;;;;;6.15;0.60;;;15.30;1.00;;;;;;5074068;28;20037;-37
2023/03/06 05:25:57;;;;;;;2.10;0.32;;;15.30;1.00;;;;;;5073187;28;20050;-37
2023/03/06 05:28:24;;;;;;;4.07;0.40;;;15.20;1.00;;;;;;5082382;28;20384;-37
2023/03/06 05:30:51;;;;;;;3.17;0.20;;;15.20;1.00;;;;;;5075313;28;20404;-37
2023/03/06 05:33:18;;;;;;;1.98;0.35;;;15.20;1.00;;;;;;5074291;28;20045;-37
2023/03/06 05:35:46;;;;;;;2.92;0.55;;;15.20;1.00;;;;;;5075250;28;20059;-37
2023/03/06 05:38:16;;;;;;;0.95;0.30;;;15.20;1.00;;;;;;5074944;28;20048;-37
2023/03/06 05:40:44;;;;;;;5.55;1.08;;;15.20;1.00;;;;;;5074975;28;20045;-37
2023/03/06 05:43:11;;;;;;;3.72;0.20;;;15.20;1.00;;;;;;5074111;28;20040;-37
2023/03/06 05:45:39;;;;;;;1.13;0.13;;;15.20;1.00;;;;;;5074809;28;20036;-38
2023/03/06 05:48:07;;;;;;;3.53;0.20;;;15.10;1.00;;;;;;5074722;28;20047;-37
2023/03/06 05:50:33;;;;;;;5.85;0.50;;;15.10;1.00;;;;;;5074805;28;20127;-37
2023/03/06 05:53:00;;;;;;;2.67;1.08;;;15.10;1.00;;;;;;5073905;28;20040;-37
2023/03/06 05:55:27;;;;;;;2.42;0.40;;;15.10;1.00;;;;;;5071428;28;20051;-37
2023/03/06 05:57:54;;;;;;;0.75;0.10;;;15.10;1.00;;;;;;5074483;28;20132;-37
2023/03/06 06:00:21;;;;;;;3.28;0.32;;;15.10;1.00;;;;;;5073729;28;20547;-37
2023/03/06 06:02:48;;;;;;;2.75;0.50;;;15.10;1.00;;;;;;5073449;28;20046;-38
2023/03/06 06:05:15;;;;;;;2.58;0.32;;;15.10;1.00;;;;;;5074506;28;20093;-38
2023/03/06 06:07:42;;;;;;;3.42;0.63;;;15.00;1.00;;;;;;5073189;28;20462;-37
2023/03/06 06:10:10;;;;;;;2.53;0.22;;;15.00;1.00;;;;;;5074457;28;20064;-38
2023/03/06 06:12:37;;;;;;;3.05;0.40;;;15.00;1.00;;;;;;5073602;28;20055;-38
2023/03/06 06:15:05;;;;;;;3.30;0.20;;;15.00;1.00;;;;;;5074204;28;20045;-37
2023/03/06 06:17:32;;;;;;;0.90;0.32;;;15.00;1.00;;;;;;5068697;28;20094;-38
2023/03/06 06:19:59;;;;;;;1.85;0.20;;;15.00;1.00;;;;;;5056542;28;20075;-38
2023/03/06 06:22:26;;;;;;;0.38;0.10;;;15.00;1.00;;;;;;5058500;28;20060;-38
2023/03/06 06:24:52;;;;;;;1.33;0.30;;;14.90;1.00;;;;;;5072679;28;20070;-38
2023/03/06 06:27:19;;;;;;;2.58;0.47;;;14.90;1.00;;;;;;5073743;28;20131;-38
2023/03/06 06:29:50;;;;;;;0.85;0.32;;;14.90;1.00;;;;;;5073941;28;20454;-38
2023/03/06 06:32:16;;;;;;;3.38;0.40;;;14.90;1.00;;;;;;5072483;28;20049;-38
2023/03/06 06:34:43;;;;;;;1.63;0.25;;;14.90;1.00;;;;;;5073669;28;20037;-38
2023/03/06 06:37:10;;;;;;;1.85;0.40;;;14.90;1.00;;;;;;5073716;28;20045;-38
2023/03/06 06:39:37;;;;;;;3.65;0.65;;;14.90;1.00;;;;;;5073763;28;20487;-38
2023/03/06 06:42:04;;;;;;;3.63;0.73;;;14.90;1.00;;;;;;5073720;28;20045;-38
2023/03/06 06:44:51;;;;;;;0.82;0.38;;;14.80;1.00;;;;;;5073466;28;20048;-38
2023/03/06 06:47:17;;;;;;;3.42;0.57;;;14.80;1.00;;;;;;5073402;28;20032;-38
2023/03/06 06:49:51;;;;;;;2.67;0.32;;;14.80;1.00;;;;;;5073823;28;20127;-38
2023/03/06 06:52:18;;;;;;;3.42;0.80;;;14.80;1.00;;;;;;5073243;28;20045;-38
2023/03/06 06:54:45;;;;;;;3.35;0.40;;;14.80;1.00;;;;;;5073614;28;20052;-38
2023/03/06 06:57:13;;;;;;;0.73;0.20;;;14.80;1.00;;;;;;5073202;28;20076;-38
2023/03/06 06:59:39;;;;;;;1.40;0.30;;;14.80;1.00;;;;;;5073230;28;20075;-37
2023/03/06 07:02:06;;;;;;;1.98;0.30;;;14.70;1.00;;;;;;5073259;28;20132;-37
2023/03/06 07:04:33;;;;;;;1.35;0.30;;;14.70;1.00;;;;;;5072544;28;20480;-38
2023/03/06 07:07:00;;;;;;;3.72;0.30;;;14.70;1.00;;;;;;5073220;28;20075;-37
2023/03/06 07:09:29;;;;;;;1.65;0.68;;;14.70;1.00;;;;;;5072009;28;20488;-37
2023/03/06 07:11:56;;;;;;;2.22;0.40;;;14.70;1.00;;;;;;5073012;28;20036;-37
2023/03/06 07:14:23;;;;;;;0.47;0.20;;;14.70;1.00;;;;;;5072419;28;20066;-37
2023/03/06 07:16:50;;;;;;;1.67;0.30;;;14.70;1.00;;;;;;5072930;28;20060;-37
2023/03/06 07:19:16;;;;;;;3.13;0.30;;;14.70;1.00;;;;;;5071811;28;20056;-37
2023/03/06 07:21:43;;;;;;;1.15;0.40;;;14.70;1.00;;;;;;5072900;28;20411;-37
2023/03/06 07:24:10;;;;;;;1.30;0.40;;;14.60;1.00;;;;;;5071964;28;20123;-37
2023/03/06 07:26:37;;;;;;;0.95;0.30;;;14.60;1.00;;;;;;5072651;28;20094;-37
2023/03/06 07:29:03;;;;;;;0.77;0.30;;;14.60;1.00;;;;;;5072626;28;20098;-37
2023/03/06 07:31:30;;;;;;;1.23;0.32;;;14.60;1.00;;;;;;5072710;28;20044;-37
2023/03/06 07:33:57;;;;;;;0.93;0.30;;;14.60;1.00;;;;;;5071910;28;20554;-37
2023/03/06 07:36:24;;;;;;;1.00;0.50;;;14.60;1.00;;;;;;5072324;28;20561;-37
2023/03/06 07:38:50;;;;;;;1.00;0.30;;;14.60;1.00;;;;;;5072807;28;20079;-37
2023/03/06 07:41:17;;;;;;;1.33;0.45;;;14.60;1.00;;;;;;5072617;28;20063;-37
2023/03/06 07:43:48;;;;;;;1.75;0.43;;;14.60;1.00;;;;;;5071869;28;20128;-37
2023/03/06 07:46:16;;;;;;;0.73;0.28;;;14.60;1.00;;;;;;5071074;28;20045;-37
2023/03/06 07:48:43;;;;;;;1.00;0.22;;;14.60;1.00;;;;;;5072411;28;20510;-37
2023/03/06 07:51:17;;;;;;;0.95;0.32;;;14.60;1.00;;;;;;5072322;28;20040;-37
2023/03/06 07:53:45;;;;;;;2.03;0.40;;;14.50;1.00;;;;;;5071507;28;20045;-37
2023/03/06 07:56:12;;;;;;;0.88;0.20;;;14.50;1.00;;;;;;5072685;28;20055;-37
2023/03/06 07:58:42;;;;;;;1.15;0.50;;;14.50;1.00;;;;;;5072309;28;20052;-38
2023/03/06 08:01:14;;;;;;;0.82;0.28;;;14.50;1.00;;;;;;5072265;28;20158;-37
2023/03/06 08:03:41;;;;;;;0.38;0.13;;;14.50;1.00;;;;;;5071230;28;20041;-37
2023/03/06 08:06:16;;;;;;;3.42;0.35;;;14.50;1.00;;;;;;5072110;28;20036;-37
2023/03/06 08:08:45;;;;;;;3.10;0.65;;;14.50;1.00;;;;;;5072319;28;20393;-37
2023/03/06 08:11:14;;;;;;;0.95;0.52;;;14.50;1.00;;;;;;5072484;28;20448;-37
2023/03/06 08:13:42;;;;;;;2.50;0.43;;;14.50;1.00;;;;;;5071212;28;20119;-37
2023/03/06 08:16:09;;;;;;;0.68;0.28;;;14.50;1.00;;;;;;5071820;28;20054;-38
2023/03/06 08:18:38;;;;;;;0.85;0.35;;;14.50;1.00;;;;;;5072134;28;20342;-37
2023/03/06 08:21:14;;;;;;;0.60;0.30;;;14.50;1.00;;;;;;5072325;28;20454;-37
2023/03/06 08:23:41;;;;;;;1.83;0.43;;;14.50;1.00;;;;;;5071149;28;20040;-37
2023/03/06 08:26:18;;;;;;;0.73;0.22;;;14.40;1.00;;;;;;5071728;28;20040;-37
2023/03/06 08:28:45;;;;;;;1.30;0.43;;;14.40;1.00;;;;;;5053940;28;20045;-38
2023/03/06 08:31:26;;;;;;;1.17;0.45;;;14.40;1.00;;;;;;5071812;28;20045;-38
2023/03/06 08:33:55;;;;;;;3.63;0.32;;;14.40;1.00;;;;;;5071129;28;20040;-38
2023/03/06 08:36:23;;;;;;;1.05;0.10;;;14.40;1.00;;;;;;5071713;28;20045;-38
2023/03/06 08:38:50;;;;;;;2.30;0.22;;;14.40;1.00;;;;;;5071732;28;20048;-38
2023/03/06 08:41:18;;;;;;;0.43;0.25;;;14.40;1.00;;;;;;5071541;28;20068;-38
2023/03/06 08:43:46;;;;;;;1.08;0.20;;;14.40;1.00;;;;;;5070854;28;20040;-38
2023/03/06 08:46:13;;;;;;;1.35;0.60;;;14.40;1.00;;;;;;5071084;28;20040;-38
2023/03/06 08:48:40;;;;;;;1.10;0.28;;;14.40;1.00;;;;;;5071708;28;20033;-38
2023/03/06 08:51:08;;;;;;;1.27;0.22;;;14.40;1.00;;;;;;5071557;28;20041;-38
2023/03/06 08:53:36;;;;;;;1.38;0.45;;;14.40;1.00;;;;;;5070647;28;20109;-38
2023/03/06 08:56:21;;;;;;;0.40;0.20;;;14.50;1.00;;;;;;5071362;28;20049;-37
2023/03/06 08:58:48;;;;;;;1.25;0.40;;;14.40;1.00;;;;;;5071476;28;20040;-38
2023/03/06 09:01:18;;;;;;;1.00;0.70;;;14.40;1.00;;;;;;5071623;28;20053;-38
2023/03/06 09:03:45;;;;;;;0.60;0.30;;;14.40;1.00;;;;;;5070619;28;20132;-38
2023/03/06 09:06:12;;;;;;;0.20;0.10;;;14.50;1.00;;;;;;5071349;28;20043;-38
2023/03/06 09:08:41;;;;;;;0.77;0.30;;;14.40;1.00;;;;;;5071466;28;20037;-38
2023/03/06 09:11:13;;;;;;;1.38;0.28;;;14.50;1.00;;;;;;5071461;28;20078;-38
2023/03/06 09:13:41;;;;;;;0.68;0.20;;;14.50;1.00;;;;;;5070650;28;20412;-38
2023/03/06 09:16:09;;;;;;;0.95;0.60;;;14.50;1.00;;;;;;5071399;28;20067;-38
2023/03/06 09:18:36;;;;;;;1.50;0.65;;;14.50;1.00;;;;;;5071236;28;20141;-38
2023/03/06 09:21:04;;;;;;;1.30;0.28;;;14.50;1.00;;;;;;5071406;28;20052;-38
2023/03/06 09:23:31;;;;;;;2.40;0.30;;;14.50;1.00;;;;;;5070433;28;20040;-38
2023/03/06 09:25:59;;;;;;;0.40;0.20;;;14.50;1.00;;;;;;5071131;28;20049;-38
2023/03/06 09:28:26;;;;;;;1.13;0.30;;;14.60;1.00;;;;;;5071360;28;20078;-38
2023/03/06 09:30:53;;;;;;;0.73;0.20;;;14.60;1.00;;;;;;5071301;28;20037;-38
2023/03/06 09:33:20;;;;;;;0.32;0.10;;;14.60;1.00;;;;;;5070409;28;20062;-38
2023/03/06 09:35:55;;;;;;;1.80;0.30;;;14.60;1.00;;;;;;5071102;28;20123;-39
2023/03/06 09:38:24;;;;;;;1.02;0.20;;;14.60;1.00;;;;;;5071211;28;20185;-38
2023/03/06 09:41:03;;;;;;;0.38;0.10;;;14.60;1.00;;;;;;5071294;28;20606;-38
2023/03/06 09:43:36;;;;;;;0.50;0.10;;;14.60;1.00;;;;;;5070243;28;20411;-38
2023/03/06 09:46:29;;;;;;;1.65;0.65;;;14.70;1.00;;;;;;5071119;28;20044;-36
2023/03/06 09:49:16;;;;;;;1.75;0.20;;;14.70;1.00;;;;;;5071094;28;20041;-36
2023/03/06 09:51:54;;;;;;;1.17;0.20;;;14.70;1.00;;;;;;5071602;28;20119;-37
2023/03/06 09:54:37;;;;;;;1.52;0.20;;;14.70;1.00;;;;;;5070343;28;20044;-37
2023/03/06 09:57:18;;;;;;;0.63;0.20;;;14.70;1.00;;;;;;5071165;28;20090;-38
2023/03/06 09:59:49;;;;;;;2.33;0.32;;;14.70;1.00;;;;;;5073562;28;20052;-37
2023/03/06 10:02:44;;;;;;;0.20;0.10;;;14.70;1.00;;;;;;5074062;28;20048;-38
2023/03/06 10:05:39;;;;;;;1.90;0.20;;;14.80;1.00;;;;;;5074283;28;20070;-37
2023/03/06 10:08:20;;;;;;;1.17;0.40;;;14.80;1.00;;;;;;5072196;28;20060;-38
2023/03/06 10:11:02;;;;;;;0.50;0.20;;;14.80;1.00;;;;;;5074176;28;20539;-37
2023/03/06 10:13:34;;;;;;;0.30;0.10;;;14.80;1.00;;;;;;5073665;28;20143;-37
2023/03/06 10:16:21;;;;;;;0.90;0.30;;;14.80;1.00;;;;;;5074270;28;20041;-37
2023/03/06 10:18:48;;;;;;;0.50;0.30;;;14.80;1.00;;;;;;5074171;28;20036;-37
2023/03/06 10:21:50;;;;;;;0.63;0.20;;;14.80;1.00;;;;;;5074089;28;20094;-38
2023/03/06 10:24:30;;;;;;;0.50;0.20;;;14.80;1.00;;;;;;5055142;28;20192;-38
2023/03/06 10:27:26;;;;;;;0.50;0.25;;;14.80;1.00;;;;;;5073945;28;20041;-37
2023/03/06 10:30:01;;;;;;;1.35;0.20;;;14.80;1.00;;;;;;5074124;28;20106;-37
2023/03/06 10:32:42;;;;;;;0.52;0.25;;;14.80;1.00;;;;;;5073672;28;20472;-37
2023/03/06 10:35:38;;;;;;;1.58;0.20;;;14.80;1.00;;;;;;5074424;28;20399;-37
2023/03/06 10:38:26;;;;;;;1.75;0.38;;;14.80;1.00;;;;;;5073789;28;20472;-38
2023/03/06 10:41:09;;;;;;;0.50;0.17;;;14.90;1.00;;;;;;5073858;28;20036;-37
2023/03/06 10:43:37;;;;;;;2.20;0.15;;;14.80;1.00;;;;;;5073044;28;20044;-38
2023/03/06 10:46:06;;;;;;;0.40;0.20;;;14.80;1.00;;;;;;5073565;28;20043;-37
2023/03/06 10:48:35;;;;;;;0.22;0.08;;;14.90;1.00;;;;;;5073808;28;20115;-37
2023/03/06 10:51:15;;;;;;;0.47;0.10;;;14.90;1.00;;;;;;5074039;28;20463;-37
2023/03/06 10:53:56;;;;;;;1.00;0.25;;;14.90;1.00;;;;;;5072670;28;20048;-37
2023/03/06 10:56:32;;;;;;;1.25;0.28;;;14.90;1.00;;;;;;5073362;28;20045;-38
2023/03/06 10:59:06;;;;;;;0.32;0.10;;;14.90;1.00;;;;;;5073474;28;20067;-37
2023/03/06 11:01:33;;;;;;;0.55;0.10;;;14.90;1.00;;;;;;5073501;28;20102;-37
2023/03/06 11:04:19;;;;;;;0.30;0.10;;;14.90;1.00;;;;;;5072485;28;20094;-37
2023/03/06 11:06:47;;;;;;;4.57;0.73;;;14.90;1.00;;;;;;5073196;28;20048;-37
2023/03/06 11:09:22;;;;;;;0.20;0.17;;;14.90;1.00;;;;;;5072792;28;20049;-37
2023/03/06 11:11:50;;;;;;;1.33;0.20;;;14.90;1.00;;;;;;5073108;28;20407;-37
2023/03/06 11:14:21;;;;;;;0.22;0.08;;;14.90;1.00;;;;;;5072402;28;20044;-38
2023/03/06 11:16:54;;;;;;;1.05;0.20;;;14.90;1.00;;;;;;5073064;28;20489;-38
2023/03/06 11:19:26;;;;;;;1.27;0.20;;;14.90;1.00;;;;;;5072944;28;20051;-37
2023/03/06 11:22:04;;;;;;;0.30;0.20;;;14.90;1.00;;;;;;5072952;28;20483;-38
2023/03/06 11:24:39;;;;;;;0.73;0.17;;;14.90;1.00;;;;;;5072006;28;20079;-38
2023/03/06 11:27:33;;;;;;;0.43;0.20;;;14.90;1.00;;;;;;5072668;28;20415;-37
2023/03/06 11:30:17;;;;;;;0.38;0.10;;;14.90;1.00;;;;;;5072746;28;20041;-37
2023/03/06 11:33:01;;;;;;;0.70;0.10;;;14.90;1.00;;;;;;5072140;28;20483;-37
2023/03/06 11:35:33;;;;;;;;;;;14.90;1.00;;;;;;5073063;28;20127;-38
2023/03/06 11:38:05;;;;;;;1.27;0.20;;;14.90;1.00;;;;;;5072760;28;19990;-37
2023/03/06 11:40:58;;;;;;;0.65;0.17;;;14.90;1.00;;;;;;5072543;28;20072;-37
2023/03/06 11:43:47;;;;;;;1.25;0.28;;;14.90;1.00;;;;;;5071959;28;20109;-37
2023/03/06 11:46:22;;;;;;;0.98;0.10;;;14.90;1.00;;;;;;5072477;28;20068;-37
2023/03/06 11:48:55;;;;;;;1.05;0.63;;;14.90;1.00;;;;;;5072330;28;20049;-37
2023/03/06 11:51:31;;;;;;;0.10;0.00;;;14.90;1.00;;;;;;5072309;28;20050;-38
2023/03/06 11:53:59;;;;;;;0.10;0.00;;;14.90;1.00;;;;;;5071662;28;20234;-38
2023/03/06 11:56:35;;;;;;;0.40;0.20;;;14.90;1.00;;;;;;5072262;28;20048;-38
2023/03/06 11:59:14;;;;;;;0.10;0.00;;;14.90;1.00;;;;;;5071812;28;20115;-38
2023/03/06 12:01:48;;;;;;;0.22;0.13;;;14.90;1.00;;;;;;5072265;28;20093;-39
2023/03/06 12:04:38;;;;;;;0.73;0.10;;;14.90;1.00;;;;;;5071467;28;20115;-38
2023/03/06 12:07:08;;;;;;;1.45;0.25;;;14.90;1.00;;;;;;5072015;28;20040;-38
2023/03/06 12:09:40;;;;;;;1.33;0.40;;;14.90;1.00;;;;;;5072007;28;20048;-38
2023/03/06 12:12:07;;;;;;;1.95;0.30;;;14.90;1.00;;;;;;5072211;28;20102;-38
2023/03/06 12:14:49;;;;;;;0.63;0.22;;;14.90;1.00;;;;;;5071762;28;20036;-38
2023/03/06 12:17:28;;;;;;;0.40;0.17;;;14.90;1.00;;;;;;5072042;28;20079;-38
2023/03/06 12:20:05;;;;;;;0.30;0.15;;;14.90;1.00;;;;;;5071942;28;20458;-38
2023/03/06 12:22:48;;;;;;;1.17;0.17;;;14.90;1.00;;;;;;5070947;28;20430;-38
2023/03/06 12:25:36;;;;;;;0.40;0.10;;;14.90;1.00;;;;;;5071877;28;20578;-38
2023/03/06 12:28:23;;;;;;;0.93;0.10;;;14.90;1.00;;;;;;5082639;22;20468;-37
2023/03/06 12:31:19;;;;;;;1.52;0.60;;;14.90;1.00;;;;;;5071738;28;20044;-38
2023/03/06 12:34:11;;;;;;;1.00;0.17;;;14.90;1.00;;;;;;5067173;28;20057;-40
2023/03/06 12:36:43;;;;;;;0.85;0.25;;;14.90;1.00;;;;;;5071648;28;20040;-40
2023/03/06 12:39:27;;;;;;;0.88;0.30;;;14.90;1.00;;;;;;5071834;28;20044;-39
2023/03/06 12:42:17;;;;;;;1.05;0.20;;;14.90;1.00;;;;;;5053585;28;20056;-40
2023/03/06 12:44:55;;;;;;;1.65;0.20;;;14.90;1.00;;;;;;5063949;28;20435;-40
2023/03/06 12:47:26;;;;;;;0.77;0.22;;;14.90;1.00;;;;;;5071540;28;20048;-40
2023/03/06 12:50:06;;;;;;;0.63;0.13;;;14.90;1.00;;;;;;5071826;28;20075;-40
2023/03/06 12:52:34;;;;;;;0.73;0.40;;;14.90;1.00;;;;;;5071201;28;20054;-37
2023/03/06 12:55:06;;;;;;;0.82;0.10;;;14.90;1.00;;;;;;5071273;28;20041;-40
2023/03/06 12:57:33;;;;;;;1.48;0.30;;;14.90;1.00;;;;;;5071344;28;20049;-39
2023/03/06 13:00:00;;;;;;;2.22;0.45;;;14.90;1.00;;;;;;5053802;28;20048;-40
2023/03/06 13:02:56;;;;;;;0.70;0.20;;;14.80;1.00;;;;;;5071000;28;20076;-40
2023/03/06 13:05:56;;;;;;;0.68;0.20;;;14.90;1.00;;;;;;5071436;28;20037;-39
2023/03/06 13:08:53;;;;;;;1.83;0.10;;;14.90;1.00;;;;;;5030551;28;20057;-37
2023/03/06 13:11:49;;;;;;;0.85;0.40;;;14.80;1.00;;;;;;5071742;28;20071;-39
2023/03/06 13:14:24;;;;;;;0.50;0.20;;;14.80;1.00;;;;;;5070610;28;20045;-40
2023/03/06 13:16:51;;;;;;;2.47;0.20;;;14.80;1.00;;;;;;5071543;28;20041;-39
2023/03/06 13:19:22;;;;;;;0.65;0.30;;;14.80;1.00;;;;;;5071332;28;20056;-39